Boons Camp, Kentucky
Current Conditions -  °F | °C
As of 1:55 AM on Friday 26 Dec 2014 (Local Time) from KSJS Reporting Station
Clear Clear  
Wind Chill: 34°   Ceiling: Unl
Heat Index: 34°   Visibility: 10mi
Dew Point: 32°   Wind: 0mph
Humidity: 92%   Direction: NA
Pressure: 30.23"   Gusts: NA
Location:  37.84°N, 82.7°W
Report Text: KSJS 260655Z AUTO 00000KT 10SM CLR 01/00 A3023 RMK AO2 T00091002
Loading
Personal Weather Stations






























Interactive Weather Map New forecast layout! Learn more

10-Day Weather Forecast

Advertisements
Track Severe Weather on mobile